Time;durP1;ratioP1;P1;durP2;ratioP2;P2;SDS_P1;SDS_P2;PMS_P1;PMS_P2;Temp;Humidity;BMP_temperature;BMP_pressure;BME280_temperature;BME280_humidity;BME280_pressure;Samples;Min_cycle;Max_cycle;Signal;HPM_P1;HPM_P2
2023/02/25 00:01:08;;;;;;;31.10;12.85;;;;;;;;;;5032486;28;20056;-79
2023/02/25 00:03:35;;;;;;;30.50;12.32;;;;;;;;;;5032323;28;20080;-80
2023/02/25 00:06:03;;;;;;;29.00;12.85;;;;;;;;;;5031409;28;20132;-79
2023/02/25 00:08:30;;;;;;;27.90;12.27;;;;;;;;;;5032102;28;20109;-80
2023/02/25 00:11:00;;;;;;;29.98;12.70;;;;;;;;;;5030425;28;20538;-80
2023/02/25 00:13:27;;;;;;;30.55;12.65;;;;;;;;;;5033521;28;20049;-80
2023/02/25 00:15:56;;;;;;;28.02;13.38;;;;;;;;;;5035058;28;20049;-81
2023/02/25 00:18:27;;;;;;;25.02;10.90;;;;;;;;;;5033298;28;20053;-80
2023/02/25 00:20:53;;;;;;;31.33;12.40;;;;;;;;;;5013380;28;20050;-80
2023/02/25 00:23:19;;;;;;;28.55;12.27;;;;;;;;;;5030796;28;20053;-80
2023/02/25 00:25:46;;;;;;;29.88;12.13;;;;;;;;;;5028515;28;20060;-81
2023/02/25 00:28:13;;;;;;;27.42;11.00;;;;;;;;;;5030720;28;20057;-81
2023/02/25 00:30:39;;;;;;;27.95;11.20;;;;;;;;;;5031425;28;20057;-80
2023/02/25 00:33:06;;;;;;;27.10;11.20;;;;;;;;;;5031351;28;20055;-81
2023/02/25 00:35:33;;;;;;;26.85;9.70;;;;;;;;;;5035643;28;20041;-81
2023/02/25 00:37:59;;;;;;;24.60;9.43;;;;;;;;;;5034230;28;20045;-81
2023/02/25 00:40:40;;;;;;;22.67;8.50;;;;;;;;;;5030896;28;20046;-82
2023/02/25 00:43:07;;;;;;;18.20;7.68;;;;;;;;;;5032920;28;20049;-81
2023/02/25 00:45:33;;;;;;;20.77;7.53;;;;;;;;;;5032634;28;20128;-81
2023/02/25 00:48:00;;;;;;;20.77;7.15;;;;;;;;;;5013759;28;20486;-81
2023/02/25 00:50:26;;;;;;;18.40;6.68;;;;;;;;;;5032526;28;20083;-80
2023/02/25 00:52:52;;;;;;;16.58;5.97;;;;;;;;;;5031638;28;20083;-81
2023/02/25 00:55:19;;;;;;;15.80;5.65;;;;;;;;;;5028127;28;20100;-80
2023/02/25 00:57:48;;;;;;;20.27;6.05;;;;;;;;;;5030294;28;20494;-81
2023/02/25 01:00:15;;;;;;;22.95;5.70;;;;;;;;;;5031082;28;20522;-81
2023/02/25 01:02:44;;;;;;;16.33;5.47;;;;;;;;;;5032149;28;20156;-80
2023/02/25 01:05:13;;;;;;;18.48;5.15;;;;;;;;;;5014025;28;20463;-82
2023/02/25 01:07:41;;;;;;;16.48;5.10;;;;;;;;;;5032731;28;20075;-82
2023/02/25 01:10:09;;;;;;;15.90;4.75;;;;;;;;;;5030628;28;20053;-81
2023/02/25 01:12:36;;;;;;;18.42;5.47;;;;;;;;;;5033515;28;20494;-82
2023/02/25 01:15:05;;;;;;;13.48;4.55;;;;;;;;;;5032975;28;20057;-82
2023/02/25 01:17:32;;;;;;;17.63;5.10;;;;;;;;;;5016087;28;20064;-81
2023/02/25 01:19:58;;;;;;;15.20;4.07;;;;;;;;;;5036364;28;20050;-81
2023/02/25 01:22:25;;;;;;;15.27;4.13;;;;;;;;;;5034055;28;20150;-81
2023/02/25 01:24:54;;;;;;;10.70;3.92;;;;;;;;;;5028245;28;20049;-80
2023/02/25 01:27:20;;;;;;;12.38;4.50;;;;;;;;;;5030781;28;20061;-82
2023/02/25 01:29:46;;;;;;;14.27;4.35;;;;;;;;;;5031186;28;20088;-82
2023/02/25 01:32:13;;;;;;;9.73;4.63;;;;;;;;;;5034050;28;20501;-81
2023/02/25 01:34:40;;;;;;;17.38;4.82;;;;;;;;;;5035496;28;20114;-81
2023/02/25 01:37:08;;;;;;;13.45;4.93;;;;;;;;;;5017876;28;20050;-82
2023/02/25 01:39:35;;;;;;;15.63;4.88;;;;;;;;;;5033344;28;20498;-81
2023/02/25 01:42:03;;;;;;;16.13;4.50;;;;;;;;;;5036400;28;20049;-82
2023/02/25 01:44:31;;;;;;;22.85;4.70;;;;;;;;;;5035782;28;20053;-81
2023/02/25 01:46:57;;;;;;;14.32;4.05;;;;;;;;;;5034442;28;20081;-81
2023/02/25 01:49:28;;;;;;;14.50;4.53;;;;;;;;;;5035053;28;20596;-81
2023/02/25 01:52:01;;;;;;;15.70;4.22;;;;;;;;;;5036008;28;20045;-81
2023/02/25 01:54:28;;;;;;;22.65;4.10;;;;;;;;;;5015342;28;20109;-81
2023/02/25 01:56:55;;;;;;;11.93;3.80;;;;;;;;;;5034813;28;20080;-80
2023/02/25 01:59:23;;;;;;;12.90;3.75;;;;;;;;;;5035649;28;20048;-81
2023/02/25 02:01:50;;;;;;;11.73;3.55;;;;;;;;;;5036311;28;20057;-81
2023/02/25 02:04:18;;;;;;;11.82;3.13;;;;;;;;;;5033861;28;20069;-81
2023/02/25 02:06:48;;;;;;;19.40;3.58;;;;;;;;;;5035888;28;20103;-79
2023/02/25 02:09:20;;;;;;;13.60;2.60;;;;;;;;;;5035048;28;20054;-81
2023/02/25 02:11:46;;;;;;;15.55;3.15;;;;;;;;;;5036261;28;20076;-80
2023/02/25 02:14:18;;;;;;;19.13;3.13;;;;;;;;;;5036468;28;20073;-80
2023/02/25 02:17:11;;;;;;;17.13;2.67;;;;;;;;;;5035019;28;20153;-80
2023/02/25 02:19:50;;;;;;;17.90;2.38;;;;;;;;;;5032211;28;20049;-81
2023/02/25 02:22:17;;;;;;;14.95;2.75;;;;;;;;;;5036608;28;20053;-81
2023/02/25 02:24:46;;;;;;;10.27;1.90;;;;;;;;;;5034349;28;20053;-81
2023/02/25 02:27:18;;;;;;;12.50;2.30;;;;;;;;;;5030961;28;20049;-80
2023/02/25 02:30:09;;;;;;;15.48;2.42;;;;;;;;;;5057256;28;20065;-81
2023/02/25 02:32:40;;;;;;;15.73;2.42;;;;;;;;;;5056612;28;20613;-81
2023/02/25 02:35:13;;;;;;;11.88;2.17;;;;;;;;;;5058081;28;20056;-80
2023/02/25 02:38:11;;;;;;;12.80;2.08;;;;;;;;;;5057954;28;20059;-80
2023/02/25 02:40:40;;;;;;;18.42;2.58;;;;;;;;;;5039430;28;20091;-80
2023/02/25 02:43:07;;;;;;;12.10;2.35;;;;;;;;;;5057077;28;20127;-81
2023/02/25 02:45:39;;;;;;;11.25;3.28;;;;;;;;;;5046874;28;20045;-80
2023/02/25 02:48:12;;;;;;;13.00;2.60;;;;;;;;;;5036629;28;20041;-80
2023/02/25 02:50:41;;;;;;;14.43;3.10;;;;;;;;;;5036335;28;20088;-81
2023/02/25 02:53:13;;;;;;;9.98;2.30;;;;;;;;;;5035435;28;20100;-81
2023/02/25 02:55:41;;;;;;;14.10;2.67;;;;;;;;;;5032130;28;20069;-81
2023/02/25 02:58:11;;;;;;;8.45;2.50;;;;;;;;;;5035251;28;20045;-82
2023/02/25 03:00:39;;;;;;;7.00;2.20;;;;;;;;;;5034796;28;20045;-82
2023/02/25 03:03:09;;;;;;;12.23;2.38;;;;;;;;;;5035512;28;20061;-82
2023/02/25 03:05:38;;;;;;;15.35;2.45;;;;;;;;;;5034382;28;20140;-81
2023/02/25 03:08:25;;;;;;;11.93;2.08;;;;;;;;;;5034997;28;20132;-81
2023/02/25 03:10:52;;;;;;;15.77;2.42;;;;;;;;;;5032662;28;20049;-82
2023/02/25 03:13:18;;;;;;;12.50;2.03;;;;;;;;;;5035081;28;20045;-82
2023/02/25 03:15:45;;;;;;;12.98;2.40;;;;;;;;;;5034475;28;20045;-81
2023/02/25 03:18:17;;;;;;;18.88;2.25;;;;;;;;;;5034221;28;20113;-81
2023/02/25 03:20:45;;;;;;;13.77;2.38;;;;;;;;;;5034644;28;20057;-83
2023/02/25 03:23:14;;;;;;;13.85;2.53;;;;;;;;;;5037499;28;20049;-83
2023/02/25 03:25:46;;;;;;;10.40;1.98;;;;;;;;;;5033921;28;20053;-81
2023/02/25 03:28:19;;;;;;;11.57;2.22;;;;;;;;;;5034703;28;20068;-82
2023/02/25 03:30:48;;;;;;;11.25;2.38;;;;;;;;;;5017990;28;20091;-82
2023/02/25 03:33:20;;;;;;;17.55;2.05;;;;;;;;;;5035222;28;20451;-85
2023/02/25 03:35:47;;;;;;;13.60;2.13;;;;;;;;;;5034835;28;20053;-82
2023/02/25 03:38:18;;;;;;;17.25;2.47;;;;;;;;;;5017411;28;20053;-81
2023/02/25 03:40:46;;;;;;;10.70;2.35;;;;;;;;;;5033176;28;20137;-81
2023/02/25 03:43:14;;;;;;;12.77;2.15;;;;;;;;;;5036894;28;20054;-81
2023/02/25 03:45:42;;;;;;;22.60;2.33;;;;;;;;;;5036624;28;20050;-81
2023/02/25 03:48:09;;;;;;;14.90;2.55;;;;;;;;;;5036181;28;20063;-82
2023/02/25 03:50:58;;;;;;;14.77;2.55;;;;;;;;;;5037483;28;20049;-81
2023/02/25 03:53:25;;;;;;;11.70;1.83;;;;;;;;;;5036695;28;20115;-81
2023/02/25 03:55:52;;;;;;;14.38;2.28;;;;;;;;;;5033971;28;20526;-81
2023/02/25 03:58:18;;;;;;;16.13;2.25;;;;;;;;;;5037191;28;20601;-81
2023/02/25 04:00:46;;;;;;;14.85;2.75;;;;;;;;;;5037464;28;20045;-81
2023/02/25 04:03:12;;;;;;;18.33;2.00;;;;;;;;;;5040642;28;20125;-83
2023/02/25 04:05:39;;;;;;;17.17;2.25;;;;;;;;;;5036264;28;20045;-79
2023/02/25 04:08:14;;;;;;;12.00;2.15;;;;;;;;;;5035807;28;20072;-81
2023/02/25 04:10:42;;;;;;;11.13;2.13;;;;;;;;;;5031583;28;20103;-82
2023/02/25 04:13:09;;;;;;;25.88;2.28;;;;;;;;;;5033958;28;20532;-80
2023/02/25 04:15:36;;;;;;;8.20;1.70;;;;;;;;;;5015628;28;20053;-81
2023/02/25 04:18:02;;;;;;;13.23;2.05;;;;;;;;;;5012651;28;20042;-81
2023/02/25 04:20:29;;;;;;;11.68;1.83;;;;;;;;;;5033671;28;20061;-81
2023/02/25 04:22:55;;;;;;;13.18;2.00;;;;;;;;;;5017275;28;20064;-81
2023/02/25 04:25:22;;;;;;;14.30;1.80;;;;;;;;;;5032115;28;20084;-78
2023/02/25 04:27:48;;;;;;;17.90;1.77;;;;;;;;;;5051093;28;20044;-80
2023/02/25 04:30:15;;;;;;;14.88;2.20;;;;;;;;;;5053424;28;20048;-79
2023/02/25 04:32:41;;;;;;;19.75;2.33;;;;;;;;;;5053869;28;20045;-80
2023/02/25 04:35:12;;;;;;;11.20;1.73;;;;;;;;;;5053618;28;20081;-80
2023/02/25 04:37:39;;;;;;;16.27;2.10;;;;;;;;;;5054672;28;20045;-80
2023/02/25 04:40:12;;;;;;;16.05;2.05;;;;;;;;;;5049477;28;20045;-79
2023/02/25 04:42:39;;;;;;;15.68;1.85;;;;;;;;;;5041008;28;20053;-80
2023/02/25 04:45:07;;;;;;;17.58;2.33;;;;;;;;;;5036823;28;20399;-79
2023/02/25 04:47:33;;;;;;;17.98;2.33;;;;;;;;;;5036116;28;20424;-80
2023/02/25 04:50:00;;;;;;;12.02;2.20;;;;;;;;;;5035896;28;20091;-80
2023/02/25 04:52:27;;;;;;;12.23;2.03;;;;;;;;;;5038207;28;20077;-79
2023/02/25 04:54:53;;;;;;;15.02;2.00;;;;;;;;;;5035452;28;20049;-80
2023/02/25 04:57:20;;;;;;;16.95;3.67;;;;;;;;;;5036920;28;20446;-81
2023/02/25 04:59:46;;;;;;;12.80;2.40;;;;;;;;;;5037373;28;20057;-80
2023/02/25 05:02:12;;;;;;;14.95;2.20;;;;;;;;;;5036117;28;20049;-80
2023/02/25 05:04:40;;;;;;;16.95;2.63;;;;;;;;;;5037049;28;20049;-80
2023/02/25 05:07:07;;;;;;;15.98;2.38;;;;;;;;;;5037779;28;20517;-81
2023/02/25 05:09:33;;;;;;;19.90;2.08;;;;;;;;;;5036992;28;20076;-80
2023/02/25 05:12:00;;;;;;;19.80;2.33;;;;;;;;;;5037673;28;20049;-79
2023/02/25 05:14:26;;;;;;;13.75;1.80;;;;;;;;;;5043150;28;20109;-79
2023/02/25 05:16:53;;;;;;;16.90;2.53;;;;;;;;;;5041598;28;20131;-80
2023/02/25 05:19:22;;;;;;;10.95;1.98;;;;;;;;;;5037051;28;20068;-80
2023/02/25 05:21:49;;;;;;;12.48;2.17;;;;;;;;;;5036025;28;20045;-82
2023/02/25 05:24:15;;;;;;;10.85;1.52;;;;;;;;;;5033278;28;20056;-80
2023/02/25 05:26:42;;;;;;;14.35;1.95;;;;;;;;;;5040792;28;20076;-81
2023/02/25 05:29:08;;;;;;;7.97;2.55;;;;;;;;;;5052663;28;20064;-81
2023/02/25 05:31:37;;;;;;;12.50;2.30;;;;;;;;;;5062361;28;20053;-79
2023/02/25 05:34:04;;;;;;;13.07;2.50;;;;;;;;;;5059092;28;20064;-80
2023/02/25 05:36:30;;;;;;;10.68;2.10;;;;;;;;;;5056624;28;20586;-79
2023/02/25 05:39:01;;;;;;;8.88;1.95;;;;;;;;;;5054228;28;20049;-78
2023/02/25 05:41:29;;;;;;;5.20;2.05;;;;;;;;;;5046139;28;20056;-79
2023/02/25 05:43:56;;;;;;;9.40;1.80;;;;;;;;;;5063624;28;20112;-82
2023/02/25 05:46:22;;;;;;;6.93;1.50;;;;;;;;;;5060391;28;20156;-78
2023/02/25 05:48:49;;;;;;;7.15;1.80;;;;;;;;;;5061484;28;20059;-79
2023/02/25 05:51:17;;;;;;;6.90;1.70;;;;;;;;;;5059325;28;20118;-80
2023/02/25 05:53:44;;;;;;;3.13;1.60;;;;;;;;;;5059080;28;20059;-80
2023/02/25 05:56:12;;;;;;;8.93;1.90;;;;;;;;;;5060004;28;20065;-81
2023/02/25 05:58:38;;;;;;;3.45;1.67;;;;;;;;;;5058210;28;20227;-80
2023/02/25 06:01:09;;;;;;;8.27;1.98;;;;;;;;;;5059591;28;20045;-78
2023/02/25 06:03:36;;;;;;;13.75;2.10;;;;;;;;;;5039919;28;20055;-83
2023/02/25 06:06:04;;;;;;;12.75;2.13;;;;;;;;;;5057163;28;20583;-78
2023/02/25 06:08:30;;;;;;;8.18;1.70;;;;;;;;;;5056287;28;20049;-81
2023/02/25 06:10:59;;;;;;;11.10;2.17;;;;;;;;;;5051788;28;20048;-80
2023/02/25 06:13:25;;;;;;;9.02;2.17;;;;;;;;;;5053075;28;20059;-82
2023/02/25 06:15:52;;;;;;;7.95;2.33;;;;;;;;;;5055228;28;20342;-81
2023/02/25 06:18:19;;;;;;;9.68;2.50;;;;;;;;;;5056342;28;20103;-81
2023/02/25 06:20:45;;;;;;;10.88;2.60;;;;;;;;;;5055194;28;20144;-81
2023/02/25 06:23:12;;;;;;;9.45;2.67;;;;;;;;;;5035893;28;20585;-80
2023/02/25 06:25:38;;;;;;;12.30;2.50;;;;;;;;;;5034350;28;20053;-81
2023/02/25 06:28:05;;;;;;;12.02;2.60;;;;;;;;;;5053264;28;20056;-81
2023/02/25 06:30:31;;;;;;;10.52;2.72;;;;;;;;;;5054601;28;20057;-80
2023/02/25 06:32:58;;;;;;;13.23;3.05;;;;;;;;;;5053764;28;20095;-81
2023/02/25 06:35:24;;;;;;;7.15;2.75;;;;;;;;;;5053327;28;20243;-81
2023/02/25 06:37:57;;;;;;;6.45;2.78;;;;;;;;;;5053088;28;20051;-81
2023/02/25 06:40:27;;;;;;;8.65;2.95;;;;;;;;;;5052292;28;20045;-81
2023/02/25 06:42:54;;;;;;;6.28;2.70;;;;;;;;;;5054713;28;20434;-79
2023/02/25 06:45:20;;;;;;;10.55;3.20;;;;;;;;;;5045607;28;20050;-81
2023/02/25 06:47:46;;;;;;;12.13;2.80;;;;;;;;;;5033638;28;20053;-81
2023/02/25 06:50:13;;;;;;;8.50;3.05;;;;;;;;;;5016980;28;20456;-81
2023/02/25 06:52:39;;;;;;;5.88;3.35;;;;;;;;;;5011245;28;20053;-81
2023/02/25 06:55:06;;;;;;;10.30;3.78;;;;;;;;;;5027363;28;20156;-82
2023/02/25 06:57:33;;;;;;;10.05;2.97;;;;;;;;;;5028575;28;20695;-81
2023/02/25 06:59:59;;;;;;;13.23;3.60;;;;;;;;;;5032486;28;20453;-84
2023/02/25 07:02:26;;;;;;;15.75;3.90;;;;;;;;;;5030429;28;20129;-86
2023/02/25 07:04:53;;;;;;;7.57;2.97;;;;;;;;;;5025099;28;20136;-86
2023/02/25 07:07:22;;;;;;;13.88;3.47;;;;;;;;;;5010743;28;20123;-82
2023/02/25 07:09:48;;;;;;;6.80;2.90;;;;;;;;;;5010483;28;20524;-81
2023/02/25 07:12:15;;;;;;;5.55;2.80;;;;;;;;;;5027264;28;20083;-80
2023/02/25 07:14:41;;;;;;;8.45;2.67;;;;;;;;;;5028222;28;20109;-79
2023/02/25 07:17:08;;;;;;;6.38;3.00;;;;;;;;;;5028273;28;20049;-80
2023/02/25 07:19:37;;;;;;;15.00;3.42;;;;;;;;;;5007414;28;20572;-81
2023/02/25 07:22:05;;;;;;;10.73;4.10;;;;;;;;;;5032160;28;20085;-81
2023/02/25 07:24:31;;;;;;;9.55;3.80;;;;;;;;;;5001487;28;20078;-81
2023/02/25 07:27:00;;;;;;;11.35;4.05;;;;;;;;;;5031718;28;20050;-81
2023/02/25 07:29:26;;;;;;;7.57;3.83;;;;;;;;;;5021071;28;20056;-80
2023/02/25 07:31:53;;;;;;;10.77;4.25;;;;;;;;;;5007911;28;20073;-80
2023/02/25 07:34:19;;;;;;;9.15;3.92;;;;;;;;;;5026800;28;20129;-83
2023/02/25 07:36:46;;;;;;;7.03;3.50;;;;;;;;;;5025607;28;20045;-82
2023/02/25 07:39:12;;;;;;;8.63;4.30;;;;;;;;;;5009116;28;20614;-80
2023/02/25 07:41:39;;;;;;;8.23;4.05;;;;;;;;;;5031665;28;20046;-82
2023/02/25 07:44:05;;;;;;;8.20;4.25;;;;;;;;;;5033378;28;20053;-81
2023/02/25 07:46:34;;;;;;;9.52;3.72;;;;;;;;;;5030500;28;20060;-79
2023/02/25 07:49:01;;;;;;;7.85;3.42;;;;;;;;;;5033266;28;20569;-82
2023/02/25 07:51:27;;;;;;;6.65;3.20;;;;;;;;;;5031500;28;20072;-81
2023/02/25 07:53:55;;;;;;;7.22;3.35;;;;;;;;;;5029836;28;20060;-81
2023/02/25 07:56:22;;;;;;;10.73;4.43;;;;;;;;;;5032295;28;20164;-79
2023/02/25 07:58:49;;;;;;;9.70;3.78;;;;;;;;;;5031153;28;20427;-80
2023/02/25 08:01:30;;;;;;;5.88;3.58;;;;;;;;;;5026095;28;20059;-81
2023/02/25 08:03:58;;;;;;;9.80;3.95;;;;;;;;;;5046818;28;20076;-83
2023/02/25 08:06:25;;;;;;;6.40;3.60;;;;;;;;;;5028848;28;20049;-82
2023/02/25 08:08:54;;;;;;;8.63;4.07;;;;;;;;;;5027980;28;20053;-81
2023/02/25 08:11:23;;;;;;;9.30;4.78;;;;;;;;;;5026833;28;20137;-81
2023/02/25 08:13:50;;;;;;;7.85;4.38;;;;;;;;;;5028752;28;20113;-80
2023/02/25 08:16:18;;;;;;;11.68;5.20;;;;;;;;;;5009056;28;20159;-80
2023/02/25 08:18:46;;;;;;;16.23;5.45;;;;;;;;;;5010829;28;20060;-81
2023/02/25 08:21:13;;;;;;;13.98;5.85;;;;;;;;;;5026749;28;20041;-81
2023/02/25 08:23:40;;;;;;;14.20;6.28;;;;;;;;;;5026514;28;20113;-82
2023/02/25 08:26:08;;;;;;;11.57;6.72;;;;;;;;;;5026673;28;20482;-81
2023/02/25 08:28:35;;;;;;;12.85;6.30;;;;;;;;;;5026371;28;20053;-80
2023/02/25 08:31:02;;;;;;;9.73;5.32;;;;;;;;;;5027394;28;20053;-80
2023/02/25 08:33:29;;;;;;;13.57;6.53;;;;;;;;;;5007453;28;20053;-80
2023/02/25 08:36:04;;;;;;;12.27;5.70;;;;;;;;;;5026738;28;20075;-80
2023/02/25 08:38:30;;;;;;;9.13;4.72;;;;;;;;;;5027254;28;20140;-80
2023/02/25 08:40:58;;;;;;;10.63;4.88;;;;;;;;;;5026697;28;20716;-81
2023/02/25 08:43:25;;;;;;;11.73;4.78;;;;;;;;;;5027855;28;20501;-80
2023/02/25 08:45:51;;;;;;;8.45;4.50;;;;;;;;;;5023216;28;20065;-80
2023/02/25 08:48:18;;;;;;;11.10;4.90;;;;;;;;;;5026515;28;20053;-81
2023/02/25 08:50:44;;;;;;;11.88;4.30;;;;;;;;;;5008016;28;20140;-81
2023/02/25 08:53:11;;;;;;;10.32;4.50;;;;;;;;;;5026572;28;20064;-80
2023/02/25 08:55:38;;;;;;;11.15;4.43;;;;;;;;;;5023504;28;20462;-82
2023/02/25 08:58:05;;;;;;;10.45;3.75;;;;;;;;;;5026808;28;20057;-81
2023/02/25 09:00:31;;;;;;;7.78;3.70;;;;;;;;;;5025701;28;20045;-80
2023/02/25 09:02:58;;;;;;;7.07;3.55;;;;;;;;;;5026919;28;20168;-80
2023/02/25 09:05:25;;;;;;;6.80;3.30;;;;;;;;;;5031559;28;20566;-81
2023/02/25 09:07:51;;;;;;;12.05;3.60;;;;;;;;;;5034499;28;20143;-81
2023/02/25 09:10:18;;;;;;;9.10;3.10;;;;;;;;;;5025078;28;20136;-80
2023/02/25 09:12:45;;;;;;;10.40;3.45;;;;;;;;;;5028786;28;20056;-82
2023/02/25 09:15:12;;;;;;;6.53;3.15;;;;;;;;;;5025226;28;20566;-80
2023/02/25 09:17:39;;;;;;;9.50;3.10;;;;;;;;;;5025173;28;20060;-79
2023/02/25 09:20:06;;;;;;;7.40;3.90;;;;;;;;;;5021747;28;20320;-79
2023/02/25 09:22:33;;;;;;;5.45;3.33;;;;;;;;;;5019797;28;20137;-80
2023/02/25 09:25:00;;;;;;;5.88;3.17;;;;;;;;;;5014394;28;20426;-81
2023/02/25 09:27:27;;;;;;;8.90;4.00;;;;;;;;;;5039884;28;20054;-80
2023/02/25 09:29:53;;;;;;;5.18;2.60;;;;;;;;;;5032829;28;20149;-79
2023/02/25 09:32:22;;;;;;;10.48;3.60;;;;;;;;;;5032006;28;20276;-79
2023/02/25 09:34:51;;;;;;;8.82;3.72;;;;;;;;;;5029395;28;20045;-80
2023/02/25 09:37:18;;;;;;;11.48;3.60;;;;;;;;;;5027564;28;20132;-80
2023/02/25 09:39:45;;;;;;;6.15;3.67;;;;;;;;;;5027332;28;20140;-80
2023/02/25 09:42:19;;;;;;;7.47;3.65;;;;;;;;;;5022601;28;20077;-80
2023/02/25 09:44:48;;;;;;;6.60;3.03;;;;;;;;;;5031309;28;20361;-80
2023/02/25 09:47:18;;;;;;;6.90;3.20;;;;;;;;;;5030184;28;20058;-80
2023/02/25 09:49:54;;;;;;;6.55;3.17;;;;;;;;;;5029291;28;20050;-82
2023/02/25 09:52:35;;;;;;;6.20;3.40;;;;;;;;;;5027415;28;20132;-80
2023/02/25 09:55:05;;;;;;;8.63;3.72;;;;;;;;;;5033657;28;20081;-80
2023/02/25 09:57:35;;;;;;;7.53;3.00;;;;;;;;;;5035099;28;20109;-81
2023/02/25 10:00:11;;;;;;;6.03;3.47;;;;;;;;;;5034796;28;20053;-80
2023/02/25 10:02:43;;;;;;;5.50;2.97;;;;;;;;;;5028127;28;20308;-81
2023/02/25 10:05:10;;;;;;;6.38;2.85;;;;;;;;;;5035015;28;20064;-79
2023/02/25 10:07:42;;;;;;;7.35;3.00;;;;;;;;;;5045303;28;20054;-79
2023/02/25 10:10:15;;;;;;;8.63;2.33;;;;;;;;;;5031973;28;20071;-80
2023/02/25 10:12:42;;;;;;;11.25;4.30;;;;;;;;;;5033738;28;20116;-80
2023/02/25 10:15:11;;;;;;;6.95;2.80;;;;;;;;;;5015762;28;20049;-79
2023/02/25 10:17:52;;;;;;;7.57;3.15;;;;;;;;;;5034793;28;20076;-80
2023/02/25 10:20:37;;;;;;;7.20;3.30;;;;;;;;;;5006641;28;20088;-79
2023/02/25 10:23:23;;;;;;;5.35;2.60;;;;;;;;;;5014750;28;20052;-80
2023/02/25 10:25:49;;;;;;;;;;;;;;;;;;5027398;28;20045;-81
2023/02/25 10:28:16;;;;;;;10.13;3.10;;;;;;;;;;5033601;28;19928;-81
2023/02/25 10:30:46;;;;;;;6.82;3.45;;;;;;;;;;5015914;28;20056;-83
2023/02/25 10:33:14;;;;;;;7.82;3.35;;;;;;;;;;5034158;28;20051;-81
2023/02/25 10:35:41;;;;;;;9.90;4.55;;;;;;;;;;5033661;28;20122;-80
2023/02/25 10:38:11;;;;;;;8.65;4.50;;;;;;;;;;5033097;28;20538;-79
2023/02/25 10:40:39;;;;;;;18.15;6.95;;;;;;;;;;5032499;28;20056;-81
2023/02/25 10:43:25;;;;;;;14.52;5.43;;;;;;;;;;5040366;28;20054;-82
2023/02/25 10:45:59;;;;;;;14.15;5.80;;;;;;;;;;5047862;28;20101;-82
2023/02/25 10:48:26;;;;;;;13.32;5.88;;;;;;;;;;5027773;28;20164;-82
2023/02/25 10:51:10;;;;;;;11.25;5.60;;;;;;;;;;5031766;28;20057;-81
2023/02/25 10:53:40;;;;;;;11.18;5.05;;;;;;;;;;5029189;28;20068;-81
2023/02/25 10:56:06;;;;;;;10.68;5.70;;;;;;;;;;5032902;28;20045;-82
2023/02/25 10:58:39;;;;;;;15.23;5.85;;;;;;;;;;5033579;28;20046;-80
2023/02/25 11:01:16;;;;;;;9.98;4.68;;;;;;;;;;5033688;28;20588;-80
2023/02/25 11:03:54;;;;;;;8.50;4.10;;;;;;;;;;5023213;28;20061;-79
2023/02/25 11:06:21;;;;;;;14.85;3.67;;;;;;;;;;5037733;28;20045;-79
2023/02/25 11:08:48;;;;;;;5.53;3.50;;;;;;;;;;5022833;28;20052;-79
2023/02/25 11:11:18;;;;;;;9.93;3.85;;;;;;;;;;5019047;28;20076;-79
2023/02/25 11:13:52;;;;;;;8.02;3.55;;;;;;;;;;5032222;28;20053;-82
2023/02/25 11:16:19;;;;;;;10.88;3.60;;;;;;;;;;5024679;28;20044;-80
2023/02/25 11:18:49;;;;;;;5.68;3.30;;;;;;;;;;5053718;28;20198;-80
2023/02/25 11:21:26;;;;;;;5.28;2.75;;;;;;;;;;5019964;28;20088;-80
2023/02/25 11:23:53;;;;;;;4.75;2.90;;;;;;;;;;5015261;28;20061;-78
2023/02/25 11:26:46;;;;;;;12.43;2.65;;;;;;;;;;5039457;28;20291;-79
2023/02/25 11:29:15;;;;;;;5.82;2.40;;;;;;;;;;5032128;28;20069;-79
2023/02/25 11:31:42;;;;;;;5.28;2.88;;;;;;;;;;5033872;28;20045;-80
2023/02/25 11:34:14;;;;;;;3.78;2.20;;;;;;;;;;5031131;28;20057;-79
2023/02/25 11:36:41;;;;;;;6.43;2.30;;;;;;;;;;5030810;28;20056;-81
2023/02/25 11:39:14;;;;;;;7.65;2.50;;;;;;;;;;5012505;28;20045;-81
2023/02/25 11:41:42;;;;;;;5.20;2.75;;;;;;;;;;5046307;28;20057;-81
2023/02/25 11:44:32;;;;;;;10.18;3.50;;;;;;;;;;5049754;28;20053;-78
2023/02/25 11:47:17;;;;;;;8.13;4.30;;;;;;;;;;5038475;28;20091;-81
2023/02/25 11:49:43;;;;;;;7.35;4.43;;;;;;;;;;5052540;28;20049;-80
2023/02/25 11:52:36;;;;;;;10.77;4.50;;;;;;;;;;5038838;28;20148;-82
2023/02/25 11:55:03;;;;;;;9.93;4.10;;;;;;;;;;4997400;28;20053;-82
2023/02/25 11:57:53;;;;;;;9.25;4.47;;;;;;;;;;5030112;28;20053;-81
2023/02/25 12:00:33;;;;;;;8.68;4.80;;;;;;;;;;4997172;28;20063;-78
2023/02/25 12:03:09;;;;;;;12.95;4.80;;;;;;;;;;5018969;28;20051;-80
2023/02/25 12:05:46;;;;;;;10.07;4.28;;;;;;;;;;5033699;28;20445;-80
2023/02/25 12:08:13;;;;;;;8.95;4.25;;;;;;;;;;5017028;28;20160;-81
2023/02/25 12:10:48;;;;;;;8.05;3.85;;;;;;;;;;5029697;28;20060;-81
2023/02/25 12:13:15;;;;;;;;;;;;;;;;;;5030777;28;20329;-81
2023/02/25 12:15:50;;;;;;;7.47;3.95;;;;;;;;;;5010731;28;19944;-79
2023/02/25 12:18:20;;;;;;;10.00;4.22;;;;;;;;;;5028932;28;20053;-82
2023/02/25 12:20:58;;;;;;;9.75;4.90;;;;;;;;;;5028333;28;20049;-81
2023/02/25 12:23:44;;;;;;;8.50;4.13;;;;;;;;;;5049352;28;20095;-83
2023/02/25 12:26:21;;;;;;;10.48;4.78;;;;;;;;;;5019883;28;20072;-82
2023/02/25 12:29:06;;;;;;;10.15;4.45;;;;;;;;;;5010995;28;20567;-81
2023/02/25 12:31:32;;;;;;;9.07;5.35;;;;;;;;;;5007879;28;20771;-81
2023/02/25 12:34:38;;;;;;;9.07;5.07;;;;;;;;;;5030380;28;20053;-80
2023/02/25 12:37:19;;;;;;;13.23;6.72;;;;;;;;;;4948048;29;20583;-81
2023/02/25 12:39:46;;;;;;;12.88;7.85;;;;;;;;;;4931609;29;20062;-82
2023/02/25 12:42:15;;;;;;;16.98;9.02;;;;;;;;;;4974839;28;20523;-81
2023/02/25 12:44:42;;;;;;;16.30;8.77;;;;;;;;;;5029232;28;20140;-81
2023/02/25 12:47:09;;;;;;;19.10;8.93;;;;;;;;;;5029459;28;20072;-82
2023/02/25 12:49:54;;;;;;;15.13;8.15;;;;;;;;;;5028799;28;20077;-81
2023/02/25 12:52:24;;;;;;;13.20;6.80;;;;;;;;;;5029951;28;20049;-81
2023/02/25 12:55:02;;;;;;;11.73;6.97;;;;;;;;;;5027178;28;20572;-81
2023/02/25 12:57:48;;;;;;;9.55;5.97;;;;;;;;;;5011633;28;20052;-81
2023/02/25 13:00:23;;;;;;;9.77;4.38;;;;;;;;;;5029802;28;20049;-80
2023/02/25 13:02:49;;;;;;;10.20;4.75;;;;;;;;;;5032700;28;20109;-80
2023/02/25 13:05:19;;;;;;;9.70;5.10;;;;;;;;;;5029571;28;20768;-82
2023/02/25 13:08:04;;;;;;;7.32;4.50;;;;;;;;;;5037271;28;20053;-81
2023/02/25 13:10:46;;;;;;;12.63;4.78;;;;;;;;;;5026634;28;20156;-81
2023/02/25 13:13:22;;;;;;;9.68;4.10;;;;;;;;;;5024376;28;20148;-81
2023/02/25 13:15:54;;;;;;;6.93;4.07;;;;;;;;;;5008760;28;20139;-81
2023/02/25 13:18:40;;;;;;;6.40;3.45;;;;;;;;;;5029116;28;20054;-80
2023/02/25 13:21:13;;;;;;;8.07;3.42;;;;;;;;;;5028149;28;20049;-80
2023/02/25 13:23:59;;;;;;;4.82;3.25;;;;;;;;;;5028748;28;20081;-81
2023/02/25 13:26:45;;;;;;;5.78;3.70;;;;;;;;;;5027154;28;20207;-81
2023/02/25 13:29:14;;;;;;;3.97;2.35;;;;;;;;;;5016842;28;20509;-80
2023/02/25 13:31:56;;;;;;;6.32;3.05;;;;;;;;;;5035011;28;20075;-81
2023/02/25 13:34:28;;;;;;;5.45;3.28;;;;;;;;;;5039180;28;20057;-81
2023/02/25 13:37:03;;;;;;;6.30;3.00;;;;;;;;;;5033818;28;20140;-82
2023/02/25 13:39:33;;;;;;;5.53;2.72;;;;;;;;;;5030671;28;20117;-81
2023/02/25 13:41:59;;;;;;;8.38;3.00;;;;;;;;;;5034290;28;20053;-81
2023/02/25 13:44:28;;;;;;;5.95;3.38;;;;;;;;;;5034689;28;20056;-80
2023/02/25 13:47:13;;;;;;;6.15;2.67;;;;;;;;;;5015189;28;20046;-80
2023/02/25 13:50:02;;;;;;;10.13;3.50;;;;;;;;;;5033606;28;20053;-80
2023/02/25 13:52:28;;;;;;;6.30;3.58;;;;;;;;;;5032039;28;20105;-81
2023/02/25 13:55:13;;;;;;;4.85;3.10;;;;;;;;;;5051869;28;20057;-81
2023/02/25 13:57:59;;;;;;;11.33;3.43;;;;;;;;;;5030663;28;20041;-82
2023/02/25 14:00:40;;;;;;;6.85;3.80;;;;;;;;;;5052652;28;20694;-81
2023/02/25 14:03:19;;;;;;;7.72;3.20;;;;;;;;;;5024781;28;20425;-80
2023/02/25 14:05:55;;;;;;;8.07;3.25;;;;;;;;;;5032694;28;20462;-80
2023/02/25 14:08:40;;;;;;;6.65;2.25;;;;;;;;;;5031301;28;20061;-82
2023/02/25 14:11:06;;;;;;;2.88;1.77;;;;;;;;;;5031512;28;20062;-81
2023/02/25 14:13:38;;;;;;;2.88;1.70;;;;;;;;;;5032891;28;20057;-81
2023/02/25 14:16:20;;;;;;;3.80;2.00;;;;;;;;;;5024794;28;20053;-80
2023/02/25 14:18:51;;;;;;;3.55;1.70;;;;;;;;;;5031886;28;20080;-81
2023/02/25 14:21:18;;;;;;;1.92;1.10;;;;;;;;;;5014181;28;20063;-80
2023/02/25 14:24:10;;;;;;;2.08;1.30;;;;;;;;;;5030980;28;20057;-81
2023/02/25 14:26:41;;;;;;;1.42;1.00;;;;;;;;;;5032983;28;20418;-81
2023/02/25 14:29:17;;;;;;;2.25;1.00;;;;;;;;;;5051371;28;20413;-81
2023/02/25 14:31:46;;;;;;;2.55;1.70;;;;;;;;;;5035796;28;20049;-81
2023/02/25 14:34:28;;;;;;;2.72;1.83;;;;;;;;;;5053265;28;20049;-81
2023/02/25 14:37:03;;;;;;;5.57;1.67;;;;;;;;;;5045833;28;20060;-81
2023/02/25 14:39:44;;;;;;;3.08;1.50;;;;;;;;;;5035925;28;20521;-80
2023/02/25 14:42:30;;;;;;;5.30;2.10;;;;;;;;;;5038532;28;20085;-80
2023/02/25 14:45:02;;;;;;;2.40;1.40;;;;;;;;;;5042538;28;20057;-80
2023/02/25 14:47:41;;;;;;;7.28;2.80;;;;;;;;;;5037595;28;20087;-83
2023/02/25 14:50:29;;;;;;;5.57;2.10;;;;;;;;;;5033911;28;20470;-80
2023/02/25 14:53:24;;;;;;;6.32;2.03;;;;;;;;;;5042542;28;20049;-79
2023/02/25 14:55:57;;;;;;;4.00;1.80;;;;;;;;;;5021471;28;20069;-81